sensor_id;sensor_type;location;lat;lon;timestamp;P1;durP1;ratioP1;P2;durP2;ratioP2
32236;SDS011;18726;44.732;10.550;2023-12-20T00:00:49;22.63;;;19.80;;
32236;SDS011;18726;44.732;10.550;2023-12-20T00:03:52;20.88;;;16.23;;
32236;SDS011;18726;44.732;10.550;2023-12-20T00:06:56;15.57;;;13.88;;
32236;SDS011;18726;44.732;10.550;2023-12-20T00:09:59;16.58;;;14.77;;
32236;SDS011;18726;44.732;10.550;2023-12-20T00:13:03;16.23;;;14.45;;
32236;SDS011;18726;44.732;10.550;2023-12-20T00:16:07;19.40;;;15.25;;
32236;SDS011;18726;44.732;10.550;2023-12-20T00:19:10;22.08;;;16.27;;
32236;SDS011;18726;44.732;10.550;2023-12-20T00:22:14;24.02;;;17.00;;
32236;SDS011;18726;44.732;10.550;2023-12-20T00:25:18;30.13;;;20.10;;
32236;SDS011;18726;44.732;10.550;2023-12-20T00:28:22;20.17;;;14.43;;
32236;SDS011;18726;44.732;10.550;2023-12-20T00:31:25;16.58;;;13.95;;
32236;SDS011;18726;44.732;10.550;2023-12-20T00:34:29;16.48;;;12.93;;
32236;SDS011;18726;44.732;10.550;2023-12-20T00:37:32;14.23;;;12.57;;
32236;SDS011;18726;44.732;10.550;2023-12-20T00:40:36;15.95;;;14.02;;
32236;SDS011;18726;44.732;10.550;2023-12-20T00:43:40;18.33;;;14.95;;
32236;SDS011;18726;44.732;10.550;2023-12-20T00:46:43;17.80;;;14.82;;
32236;SDS011;18726;44.732;10.550;2023-12-20T00:49:47;20.98;;;17.08;;
32236;SDS011;18726;44.732;10.550;2023-12-20T00:52:51;39.53;;;26.52;;
32236;SDS011;18726;44.732;10.550;2023-12-20T00:55:54;26.35;;;21.52;;
32236;SDS011;18726;44.732;10.550;2023-12-20T00:58:58;25.52;;;19.42;;
32236;SDS011;18726;44.732;10.550;2023-12-20T01:02:02;22.80;;;17.70;;
32236;SDS011;18726;44.732;10.550;2023-12-20T01:05:06;21.55;;;16.02;;
32236;SDS011;18726;44.732;10.550;2023-12-20T01:08:10;21.33;;;16.65;;
32236;SDS011;18726;44.732;10.550;2023-12-20T01:11:14;18.38;;;14.32;;
32236;SDS011;18726;44.732;10.550;2023-12-20T01:14:17;17.98;;;14.05;;
32236;SDS011;18726;44.732;10.550;2023-12-20T01:17:21;21.83;;;16.13;;
32236;SDS011;18726;44.732;10.550;2023-12-20T01:20:25;23.33;;;16.10;;
32236;SDS011;18726;44.732;10.550;2023-12-20T01:23:28;21.40;;;15.95;;
32236;SDS011;18726;44.732;10.550;2023-12-20T01:26:33;30.30;;;18.52;;
32236;SDS011;18726;44.732;10.550;2023-12-20T01:29:36;23.10;;;16.50;;
32236;SDS011;18726;44.732;10.550;2023-12-20T01:32:40;24.65;;;17.08;;
32236;SDS011;18726;44.732;10.550;2023-12-20T01:35:44;19.55;;;13.27;;
32236;SDS011;18726;44.732;10.550;2023-12-20T01:38:47;23.13;;;16.58;;
32236;SDS011;18726;44.732;10.550;2023-12-20T01:41:50;22.08;;;14.52;;
32236;SDS011;18726;44.732;10.550;2023-12-20T01:44:54;13.80;;;11.30;;
32236;SDS011;18726;44.732;10.550;2023-12-20T01:47:57;11.77;;;10.57;;
32236;SDS011;18726;44.732;10.550;2023-12-20T01:51:02;13.45;;;12.05;;
32236;SDS011;18726;44.732;10.550;2023-12-20T01:54:06;15.43;;;12.43;;
32236;SDS011;18726;44.732;10.550;2023-12-20T01:57:10;14.25;;;12.75;;
32236;SDS011;18726;44.732;10.550;2023-12-20T02:00:14;16.27;;;13.23;;
32236;SDS011;18726;44.732;10.550;2023-12-20T02:03:18;23.67;;;16.38;;
32236;SDS011;18726;44.732;10.550;2023-12-20T02:06:22;19.20;;;14.57;;
32236;SDS011;18726;44.732;10.550;2023-12-20T02:09:26;22.65;;;17.13;;
32236;SDS011;18726;44.732;10.550;2023-12-20T02:12:30;39.75;;;26.38;;
32236;SDS011;18726;44.732;10.550;2023-12-20T02:15:34;26.80;;;21.08;;
32236;SDS011;18726;44.732;10.550;2023-12-20T02:18:40;28.45;;;22.90;;
32236;SDS011;18726;44.732;10.550;2023-12-20T02:21:46;24.48;;;19.70;;
32236;SDS011;18726;44.732;10.550;2023-12-20T02:24:49;22.58;;;17.92;;
32236;SDS011;18726;44.732;10.550;2023-12-20T02:27:53;25.40;;;18.92;;
32236;SDS011;18726;44.732;10.550;2023-12-20T02:30:56;23.83;;;16.40;;
32236;SDS011;18726;44.732;10.550;2023-12-20T02:34:00;18.02;;;15.85;;
32236;SDS011;18726;44.732;10.550;2023-12-20T02:37:04;15.00;;;13.48;;
32236;SDS011;18726;44.732;10.550;2023-12-20T02:40:08;14.77;;;11.07;;
32236;SDS011;18726;44.732;10.550;2023-12-20T02:43:12;13.68;;;11.55;;
32236;SDS011;18726;44.732;10.550;2023-12-20T02:46:16;16.90;;;13.18;;
32236;SDS011;18726;44.732;10.550;2023-12-20T02:49:20;23.20;;;16.90;;
32236;SDS011;18726;44.732;10.550;2023-12-20T02:52:24;16.02;;;14.02;;
32236;SDS011;18726;44.732;10.550;2023-12-20T02:55:27;16.05;;;13.90;;
32236;SDS011;18726;44.732;10.550;2023-12-20T02:58:31;20.92;;;13.57;;
32236;SDS011;18726;44.732;10.550;2023-12-20T03:01:34;9.52;;;8.73;;
32236;SDS011;18726;44.732;10.550;2023-12-20T03:04:38;12.60;;;9.85;;
32236;SDS011;18726;44.732;10.550;2023-12-20T03:07:41;15.13;;;12.48;;
32236;SDS011;18726;44.732;10.550;2023-12-20T03:10:45;14.43;;;10.90;;
32236;SDS011;18726;44.732;10.550;2023-12-20T03:13:49;11.32;;;10.05;;
32236;SDS011;18726;44.732;10.550;2023-12-20T03:16:52;11.50;;;9.40;;
32236;SDS011;18726;44.732;10.550;2023-12-20T03:19:55;16.85;;;13.02;;
32236;SDS011;18726;44.732;10.550;2023-12-20T03:23:00;17.58;;;12.93;;
32236;SDS011;18726;44.732;10.550;2023-12-20T03:26:06;15.18;;;13.45;;
32236;SDS011;18726;44.732;10.550;2023-12-20T03:29:10;23.35;;;17.95;;
32236;SDS011;18726;44.732;10.550;2023-12-20T03:32:14;12.90;;;9.23;;
32236;SDS011;18726;44.732;10.550;2023-12-20T03:35:17;10.55;;;9.45;;
32236;SDS011;18726;44.732;10.550;2023-12-20T03:38:21;15.75;;;13.52;;
32236;SDS011;18726;44.732;10.550;2023-12-20T03:41:27;15.45;;;13.15;;
32236;SDS011;18726;44.732;10.550;2023-12-20T03:44:30;11.07;;;9.65;;
32236;SDS011;18726;44.732;10.550;2023-12-20T03:47:34;8.93;;;8.15;;
32236;SDS011;18726;44.732;10.550;2023-12-20T03:50:38;10.38;;;8.30;;
32236;SDS011;18726;44.732;10.550;2023-12-20T03:53:42;11.48;;;8.27;;
32236;SDS011;18726;44.732;10.550;2023-12-20T03:56:45;8.57;;;7.70;;
32236;SDS011;18726;44.732;10.550;2023-12-20T03:59:49;9.75;;;8.70;;
32236;SDS011;18726;44.732;10.550;2023-12-20T04:02:53;9.15;;;8.35;;
32236;SDS011;18726;44.732;10.550;2023-12-20T04:05:57;8.82;;;7.63;;
32236;SDS011;18726;44.732;10.550;2023-12-20T04:09:00;12.15;;;8.93;;
32236;SDS011;18726;44.732;10.550;2023-12-20T04:12:04;19.25;;;13.18;;
32236;SDS011;18726;44.732;10.550;2023-12-20T04:15:08;14.10;;;11.88;;
32236;SDS011;18726;44.732;10.550;2023-12-20T04:18:13;16.23;;;13.02;;
32236;SDS011;18726;44.732;10.550;2023-12-20T04:21:17;15.32;;;12.23;;
32236;SDS011;18726;44.732;10.550;2023-12-20T04:24:21;15.18;;;11.95;;
32236;SDS011;18726;44.732;10.550;2023-12-20T04:27:25;17.38;;;12.93;;
32236;SDS011;18726;44.732;10.550;2023-12-20T04:30:28;14.40;;;11.68;;
32236;SDS011;18726;44.732;10.550;2023-12-20T04:33:32;17.42;;;10.90;;
32236;SDS011;18726;44.732;10.550;2023-12-20T04:36:37;18.52;;;12.80;;
32236;SDS011;18726;44.732;10.550;2023-12-20T04:39:40;24.67;;;15.73;;
32236;SDS011;18726;44.732;10.550;2023-12-20T04:42:45;23.65;;;15.02;;
32236;SDS011;18726;44.732;10.550;2023-12-20T04:45:48;21.40;;;13.82;;
32236;SDS011;18726;44.732;10.550;2023-12-20T04:48:52;28.65;;;15.68;;
32236;SDS011;18726;44.732;10.550;2023-12-20T04:51:56;19.27;;;14.68;;
32236;SDS011;18726;44.732;10.550;2023-12-20T04:55:00;13.45;;;10.52;;
32236;SDS011;18726;44.732;10.550;2023-12-20T04:58:03;14.07;;;11.65;;
32236;SDS011;18726;44.732;10.550;2023-12-20T05:01:07;20.25;;;17.10;;
32236;SDS011;18726;44.732;10.550;2023-12-20T05:04:11;13.35;;;10.52;;
32236;SDS011;18726;44.732;10.550;2023-12-20T05:07:15;13.35;;;11.95;;
32236;SDS011;18726;44.732;10.550;2023-12-20T05:10:19;10.95;;;9.68;;
32236;SDS011;18726;44.732;10.550;2023-12-20T05:13:22;12.05;;;10.02;;
32236;SDS011;18726;44.732;10.550;2023-12-20T05:16:26;11.57;;;10.20;;
32236;SDS011;18726;44.732;10.550;2023-12-20T05:19:30;12.73;;;10.20;;
32236;SDS011;18726;44.732;10.550;2023-12-20T05:22:34;13.85;;;11.60;;
32236;SDS011;18726;44.732;10.550;2023-12-20T05:25:37;15.75;;;11.00;;
32236;SDS011;18726;44.732;10.550;2023-12-20T05:28:41;14.00;;;11.50;;
32236;SDS011;18726;44.732;10.550;2023-12-20T05:31:45;15.38;;;11.40;;
32236;SDS011;18726;44.732;10.550;2023-12-20T05:34:48;12.77;;;11.40;;
32236;SDS011;18726;44.732;10.550;2023-12-20T05:37:51;12.55;;;11.25;;
32236;SDS011;18726;44.732;10.550;2023-12-20T05:40:55;10.23;;;9.27;;
32236;SDS011;18726;44.732;10.550;2023-12-20T05:43:59;11.13;;;9.70;;
32236;SDS011;18726;44.732;10.550;2023-12-20T05:47:03;10.65;;;9.63;;
32236;SDS011;18726;44.732;10.550;2023-12-20T05:50:06;11.82;;;10.63;;
32236;SDS011;18726;44.732;10.550;2023-12-20T05:53:10;12.02;;;10.88;;
32236;SDS011;18726;44.732;10.550;2023-12-20T05:56:14;17.35;;;12.70;;
32236;SDS011;18726;44.732;10.550;2023-12-20T05:59:18;20.75;;;17.23;;
32236;SDS011;18726;44.732;10.550;2023-12-20T06:02:21;18.00;;;16.00;;
32236;SDS011;18726;44.732;10.550;2023-12-20T06:05:26;18.55;;;15.35;;
32236;SDS011;18726;44.732;10.550;2023-12-20T06:08:29;17.25;;;14.73;;
32236;SDS011;18726;44.732;10.550;2023-12-20T06:11:33;21.50;;;18.48;;
32236;SDS011;18726;44.732;10.550;2023-12-20T06:14:37;22.92;;;17.30;;
32236;SDS011;18726;44.732;10.550;2023-12-20T06:17:41;21.80;;;16.92;;
32236;SDS011;18726;44.732;10.550;2023-12-20T06:20:44;25.83;;;19.67;;
32236;SDS011;18726;44.732;10.550;2023-12-20T06:23:47;26.75;;;17.85;;
32236;SDS011;18726;44.732;10.550;2023-12-20T06:26:51;25.83;;;19.48;;
32236;SDS011;18726;44.732;10.550;2023-12-20T06:29:55;18.33;;;15.73;;
32236;SDS011;18726;44.732;10.550;2023-12-20T06:32:59;15.63;;;13.18;;
32236;SDS011;18726;44.732;10.550;2023-12-20T06:36:03;18.55;;;16.58;;
32236;SDS011;18726;44.732;10.550;2023-12-20T06:39:07;18.73;;;14.68;;
32236;SDS011;18726;44.732;10.550;2023-12-20T06:42:12;14.57;;;13.07;;
32236;SDS011;18726;44.732;10.550;2023-12-20T07:26:23;9.63;;;8.68;;
32236;SDS011;18726;44.732;10.550;2023-12-20T07:29:27;11.85;;;10.10;;
32236;SDS011;18726;44.732;10.550;2023-12-20T07:32:31;11.45;;;9.90;;
32236;SDS011;18726;44.732;10.550;2023-12-20T07:35:35;13.70;;;9.77;;
32236;SDS011;18726;44.732;10.550;2023-12-20T07:38:39;11.45;;;10.13;;
32236;SDS011;18726;44.732;10.550;2023-12-20T07:41:45;12.88;;;9.65;;
32236;SDS011;18726;44.732;10.550;2023-12-20T07:44:48;10.88;;;9.75;;
32236;SDS011;18726;44.732;10.550;2023-12-20T07:47:52;10.32;;;8.90;;
32236;SDS011;18726;44.732;10.550;2023-12-20T07:50:55;12.68;;;10.93;;
32236;SDS011;18726;44.732;10.550;2023-12-20T07:53:58;22.52;;;17.45;;
32236;SDS011;18726;44.732;10.550;2023-12-20T07:57:02;36.97;;;22.63;;
32236;SDS011;18726;44.732;10.550;2023-12-20T08:00:06;17.25;;;13.18;;
32236;SDS011;18726;44.732;10.550;2023-12-20T08:03:10;19.25;;;12.07;;
32236;SDS011;18726;44.732;10.550;2023-12-20T08:06:13;23.00;;;16.63;;
32236;SDS011;18726;44.732;10.550;2023-12-20T08:09:18;19.52;;;16.48;;
32236;SDS011;18726;44.732;10.550;2023-12-20T08:12:22;23.73;;;12.65;;
32236;SDS011;18726;44.732;10.550;2023-12-20T08:15:26;18.67;;;15.88;;
32236;SDS011;18726;44.732;10.550;2023-12-20T08:18:29;20.85;;;14.65;;
32236;SDS011;18726;44.732;10.550;2023-12-20T08:21:33;24.50;;;17.17;;
32236;SDS011;18726;44.732;10.550;2023-12-20T08:24:37;22.40;;;16.75;;
32236;SDS011;18726;44.732;10.550;2023-12-20T08:27:41;19.48;;;13.80;;
32236;SDS011;18726;44.732;10.550;2023-12-20T08:30:45;89.90;;;67.95;;
32236;SDS011;18726;44.732;10.550;2023-12-20T08:33:49;54.55;;;42.78;;
32236;SDS011;18726;44.732;10.550;2023-12-20T08:36:53;56.38;;;37.97;;
32236;SDS011;18726;44.732;10.550;2023-12-20T08:39:56;22.38;;;19.95;;
32236;SDS011;18726;44.732;10.550;2023-12-20T08:43:00;23.15;;;18.10;;
32236;SDS011;18726;44.732;10.550;2023-12-20T08:46:03;32.20;;;23.75;;
32236;SDS011;18726;44.732;10.550;2023-12-20T08:49:06;23.80;;;19.60;;
32236;SDS011;18726;44.732;10.550;2023-12-20T08:52:11;26.58;;;23.23;;
32236;SDS011;18726;44.732;10.550;2023-12-20T08:55:15;24.38;;;21.10;;
32236;SDS011;18726;44.732;10.550;2023-12-20T08:58:19;22.48;;;19.73;;
32236;SDS011;18726;44.732;10.550;2023-12-20T09:01:23;24.90;;;18.75;;
32236;SDS011;18726;44.732;10.550;2023-12-20T09:04:26;19.23;;;16.67;;
32236;SDS011;18726;44.732;10.550;2023-12-20T09:07:30;20.23;;;16.98;;
32236;SDS011;18726;44.732;10.550;2023-12-20T09:10:35;20.85;;;14.30;;
32236;SDS011;18726;44.732;10.550;2023-12-20T09:13:38;18.63;;;15.85;;
32236;SDS011;18726;44.732;10.550;2023-12-20T09:16:42;19.55;;;16.27;;
32236;SDS011;18726;44.732;10.550;2023-12-20T09:19:45;25.63;;;16.77;;
32236;SDS011;18726;44.732;10.550;2023-12-20T09:22:49;20.25;;;17.00;;
32236;SDS011;18726;44.732;10.550;2023-12-20T09:25:53;26.98;;;18.17;;
32236;SDS011;18726;44.732;10.550;2023-12-20T09:28:57;23.42;;;18.15;;
32236;SDS011;18726;44.732;10.550;2023-12-20T09:32:01;24.50;;;17.80;;
32236;SDS011;18726;44.732;10.550;2023-12-20T09:35:05;24.95;;;19.30;;
32236;SDS011;18726;44.732;10.550;2023-12-20T09:38:10;25.33;;;19.23;;
32236;SDS011;18726;44.732;10.550;2023-12-20T09:41:16;26.92;;;21.88;;
32236;SDS011;18726;44.732;10.550;2023-12-20T09:44:19;24.73;;;20.63;;
32236;SDS011;18726;44.732;10.550;2023-12-20T09:47:23;27.35;;;19.70;;
32236;SDS011;18726;44.732;10.550;2023-12-20T09:50:27;28.25;;;20.38;;
32236;SDS011;18726;44.732;10.550;2023-12-20T09:53:33;24.42;;;19.55;;
32236;SDS011;18726;44.732;10.550;2023-12-20T09:56:40;29.10;;;20.73;;
32236;SDS011;18726;44.732;10.550;2023-12-20T09:59:44;28.75;;;21.65;;
32236;SDS011;18726;44.732;10.550;2023-12-20T10:02:57;23.50;;;20.08;;
32236;SDS011;18726;44.732;10.550;2023-12-20T10:06:03;21.85;;;19.02;;
32236;SDS011;18726;44.732;10.550;2023-12-20T10:09:07;24.67;;;18.60;;
32236;SDS011;18726;44.732;10.550;2023-12-20T10:12:12;23.52;;;17.73;;
32236;SDS011;18726;44.732;10.550;2023-12-20T10:15:15;22.60;;;18.30;;
32236;SDS011;18726;44.732;10.550;2023-12-20T10:18:18;26.55;;;20.35;;
32236;SDS011;18726;44.732;10.550;2023-12-20T10:21:23;25.42;;;19.67;;
32236;SDS011;18726;44.732;10.550;2023-12-20T10:24:29;25.63;;;20.48;;
32236;SDS011;18726;44.732;10.550;2023-12-20T10:27:33;25.20;;;18.88;;
32236;SDS011;18726;44.732;10.550;2023-12-20T10:30:37;26.33;;;18.90;;
32236;SDS011;18726;44.732;10.550;2023-12-20T10:33:41;27.83;;;19.98;;
32236;SDS011;18726;44.732;10.550;2023-12-20T10:36:45;31.05;;;21.48;;
32236;SDS011;18726;44.732;10.550;2023-12-20T10:39:50;33.00;;;20.42;;
32236;SDS011;18726;44.732;10.550;2023-12-20T10:42:55;29.33;;;20.77;;
32236;SDS011;18726;44.732;10.550;2023-12-20T10:45:59;28.00;;;19.58;;
32236;SDS011;18726;44.732;10.550;2023-12-20T10:49:03;24.02;;;18.42;;
32236;SDS011;18726;44.732;10.550;2023-12-20T10:52:08;23.38;;;17.67;;
32236;SDS011;18726;44.732;10.550;2023-12-20T10:55:14;25.00;;;16.45;;
32236;SDS011;18726;44.732;10.550;2023-12-20T10:58:18;22.58;;;19.30;;
32236;SDS011;18726;44.732;10.550;2023-12-20T11:01:26;24.35;;;19.63;;
32236;SDS011;18726;44.732;10.550;2023-12-20T11:04:36;30.13;;;20.33;;
32236;SDS011;18726;44.732;10.550;2023-12-20T11:07:48;24.73;;;20.27;;
32236;SDS011;18726;44.732;10.550;2023-12-20T11:14:08;24.10;;;19.98;;
32236;SDS011;18726;44.732;10.550;2023-12-20T11:17:19;29.40;;;21.45;;
32236;SDS011;18726;44.732;10.550;2023-12-20T11:20:23;23.83;;;20.73;;
32236;SDS011;18726;44.732;10.550;2023-12-20T11:23:27;30.92;;;22.85;;
32236;SDS011;18726;44.732;10.550;2023-12-20T11:26:32;29.45;;;21.55;;
32236;SDS011;18726;44.732;10.550;2023-12-20T11:29:36;27.90;;;22.05;;
32236;SDS011;18726;44.732;10.550;2023-12-20T11:32:40;32.95;;;23.45;;
32236;SDS011;18726;44.732;10.550;2023-12-20T11:35:45;27.58;;;22.98;;
32236;SDS011;18726;44.732;10.550;2023-12-20T11:38:53;28.58;;;23.35;;
32236;SDS011;18726;44.732;10.550;2023-12-20T11:42:04;26.55;;;20.50;;
32236;SDS011;18726;44.732;10.550;2023-12-20T11:45:09;25.05;;;20.17;;
32236;SDS011;18726;44.732;10.550;2023-12-20T11:48:24;26.67;;;22.40;;
32236;SDS011;18726;44.732;10.550;2023-12-20T11:51:28;24.58;;;20.92;;
32236;SDS011;18726;44.732;10.550;2023-12-20T11:54:31;29.85;;;21.52;;
32236;SDS011;18726;44.732;10.550;2023-12-20T11:57:35;24.65;;;21.70;;
32236;SDS011;18726;44.732;10.550;2023-12-20T12:00:39;32.25;;;23.83;;
32236;SDS011;18726;44.732;10.550;2023-12-20T12:03:43;33.33;;;24.08;;
32236;SDS011;18726;44.732;10.550;2023-12-20T12:06:47;31.50;;;23.35;;
32236;SDS011;18726;44.732;10.550;2023-12-20T12:09:51;32.95;;;24.33;;
32236;SDS011;18726;44.732;10.550;2023-12-20T12:12:55;31.25;;;22.30;;
32236;SDS011;18726;44.732;10.550;2023-12-20T12:15:59;33.10;;;24.00;;
32236;SDS011;18726;44.732;10.550;2023-12-20T12:19:02;29.15;;;24.02;;
32236;SDS011;18726;44.732;10.550;2023-12-20T12:22:08;31.15;;;21.83;;
32236;SDS011;18726;44.732;10.550;2023-12-20T12:25:16;27.23;;;24.20;;
32236;SDS011;18726;44.732;10.550;2023-12-20T12:28:19;32.67;;;25.20;;
32236;SDS011;18726;44.732;10.550;2023-12-20T12:31:23;26.83;;;21.65;;
32236;SDS011;18726;44.732;10.550;2023-12-20T12:34:29;30.90;;;22.92;;
32236;SDS011;18726;44.732;10.550;2023-12-20T12:37:39;32.67;;;25.50;;
32236;SDS011;18726;44.732;10.550;2023-12-20T12:40:44;34.97;;;25.45;;
32236;SDS011;18726;44.732;10.550;2023-12-20T12:43:48;25.20;;;22.58;;
32236;SDS011;18726;44.732;10.550;2023-12-20T12:46:51;26.58;;;22.80;;
32236;SDS011;18726;44.732;10.550;2023-12-20T12:49:56;29.13;;;23.52;;
32236;SDS011;18726;44.732;10.550;2023-12-20T12:53:00;28.70;;;24.30;;
32236;SDS011;18726;44.732;10.550;2023-12-20T12:56:05;33.22;;;25.25;;
32236;SDS011;18726;44.732;10.550;2023-12-20T12:59:09;27.55;;;23.90;;
32236;SDS011;18726;44.732;10.550;2023-12-20T13:02:13;30.35;;;26.30;;
32236;SDS011;18726;44.732;10.550;2023-12-20T13:05:17;30.30;;;24.75;;
32236;SDS011;18726;44.732;10.550;2023-12-20T13:08:20;28.10;;;24.75;;
32236;SDS011;18726;44.732;10.550;2023-12-20T13:11:24;29.63;;;24.98;;
32236;SDS011;18726;44.732;10.550;2023-12-20T13:14:28;32.65;;;24.23;;
32236;SDS011;18726;44.732;10.550;2023-12-20T13:17:32;32.63;;;26.58;;
32236;SDS011;18726;44.732;10.550;2023-12-20T13:20:35;35.90;;;26.27;;
32236;SDS011;18726;44.732;10.550;2023-12-20T13:23:39;30.25;;;24.08;;
32236;SDS011;18726;44.732;10.550;2023-12-20T13:26:43;33.47;;;26.08;;
32236;SDS011;18726;44.732;10.550;2023-12-20T13:29:46;32.75;;;26.35;;
32236;SDS011;18726;44.732;10.550;2023-12-20T13:32:50;38.35;;;26.65;;
32236;SDS011;18726;44.732;10.550;2023-12-20T13:35:54;30.30;;;25.63;;
32236;SDS011;18726;44.732;10.550;2023-12-20T13:38:59;28.90;;;25.92;;
32236;SDS011;18726;44.732;10.550;2023-12-20T13:42:03;33.42;;;25.00;;
32236;SDS011;18726;44.732;10.550;2023-12-20T13:45:07;34.22;;;26.70;;
32236;SDS011;18726;44.732;10.550;2023-12-20T13:48:11;32.63;;;24.05;;
32236;SDS011;18726;44.732;10.550;2023-12-20T13:51:15;37.63;;;25.10;;
32236;SDS011;18726;44.732;10.550;2023-12-20T13:54:19;30.50;;;23.75;;
32236;SDS011;18726;44.732;10.550;2023-12-20T13:57:24;32.20;;;25.38;;
32236;SDS011;18726;44.732;10.550;2023-12-20T14:00:28;33.03;;;24.45;;
32236;SDS011;18726;44.732;10.550;2023-12-20T14:03:32;31.50;;;24.27;;
32236;SDS011;18726;44.732;10.550;2023-12-20T14:06:35;31.52;;;24.20;;
32236;SDS011;18726;44.732;10.550;2023-12-20T14:09:39;34.85;;;22.88;;
32236;SDS011;18726;44.732;10.550;2023-12-20T14:12:48;28.02;;;23.38;;
32236;SDS011;18726;44.732;10.550;2023-12-20T14:15:52;27.23;;;22.10;;
32236;SDS011;18726;44.732;10.550;2023-12-20T14:18:57;30.42;;;22.17;;
32236;SDS011;18726;44.732;10.550;2023-12-20T14:22:02;38.75;;;23.48;;
32236;SDS011;18726;44.732;10.550;2023-12-20T14:25:07;32.92;;;22.45;;
32236;SDS011;18726;44.732;10.550;2023-12-20T14:28:11;27.70;;;23.10;;
32236;SDS011;18726;44.732;10.550;2023-12-20T14:31:17;32.83;;;22.42;;
32236;SDS011;18726;44.732;10.550;2023-12-20T14:34:20;31.20;;;21.45;;
32236;SDS011;18726;44.732;10.550;2023-12-20T14:37:24;27.38;;;22.30;;
32236;SDS011;18726;44.732;10.550;2023-12-20T14:40:27;27.20;;;22.58;;
32236;SDS011;18726;44.732;10.550;2023-12-20T14:43:31;27.42;;;22.40;;
32236;SDS011;18726;44.732;10.550;2023-12-20T14:46:34;26.33;;;21.05;;
32236;SDS011;18726;44.732;10.550;2023-12-20T14:49:38;26.63;;;22.02;;
32236;SDS011;18726;44.732;10.550;2023-12-20T14:52:42;24.75;;;21.48;;
32236;SDS011;18726;44.732;10.550;2023-12-20T14:55:45;25.85;;;21.30;;
32236;SDS011;18726;44.732;10.550;2023-12-20T14:58:50;37.35;;;22.80;;
32236;SDS011;18726;44.732;10.550;2023-12-20T15:01:54;29.08;;;24.48;;
32236;SDS011;18726;44.732;10.550;2023-12-20T15:04:58;31.30;;;24.83;;
32236;SDS011;18726;44.732;10.550;2023-12-20T15:08:02;48.58;;;33.08;;
32236;SDS011;18726;44.732;10.550;2023-12-20T15:11:06;43.08;;;29.83;;
32236;SDS011;18726;44.732;10.550;2023-12-20T15:14:10;34.35;;;26.50;;
32236;SDS011;18726;44.732;10.550;2023-12-20T15:17:14;30.10;;;25.45;;
32236;SDS011;18726;44.732;10.550;2023-12-20T15:20:17;33.15;;;25.30;;
32236;SDS011;18726;44.732;10.550;2023-12-20T15:23:22;29.73;;;25.17;;
32236;SDS011;18726;44.732;10.550;2023-12-20T15:26:29;33.90;;;27.67;;
32236;SDS011;18726;44.732;10.550;2023-12-20T15:29:33;38.15;;;28.77;;
32236;SDS011;18726;44.732;10.550;2023-12-20T15:32:37;48.90;;;35.63;;
32236;SDS011;18726;44.732;10.550;2023-12-20T15:35:41;51.33;;;34.72;;
32236;SDS011;18726;44.732;10.550;2023-12-20T15:38:45;67.43;;;45.03;;
32236;SDS011;18726;44.732;10.550;2023-12-20T15:41:49;64.82;;;42.67;;
32236;SDS011;18726;44.732;10.550;2023-12-20T15:44:53;68.45;;;40.60;;
32236;SDS011;18726;44.732;10.550;2023-12-20T15:47:57;58.28;;;40.92;;
32236;SDS011;18726;44.732;10.550;2023-12-20T15:51:10;48.75;;;33.25;;
32236;SDS011;18726;44.732;10.550;2023-12-20T15:54:14;38.70;;;27.67;;
32236;SDS011;18726;44.732;10.550;2023-12-20T15:57:18;42.15;;;32.90;;
32236;SDS011;18726;44.732;10.550;2023-12-20T16:00:22;38.30;;;31.05;;
32236;SDS011;18726;44.732;10.550;2023-12-20T16:03:25;42.35;;;30.77;;
32236;SDS011;18726;44.732;10.550;2023-12-20T16:06:29;36.72;;;29.92;;
32236;SDS011;18726;44.732;10.550;2023-12-20T16:09:33;56.83;;;39.40;;
32236;SDS011;18726;44.732;10.550;2023-12-20T16:12:36;39.70;;;31.52;;
32236;SDS011;18726;44.732;10.550;2023-12-20T16:15:41;43.15;;;34.78;;
32236;SDS011;18726;44.732;10.550;2023-12-20T16:18:45;43.83;;;34.53;;
32236;SDS011;18726;44.732;10.550;2023-12-20T16:21:48;49.20;;;35.03;;
32236;SDS011;18726;44.732;10.550;2023-12-20T16:24:52;41.60;;;30.67;;
32236;SDS011;18726;44.732;10.550;2023-12-20T16:27:56;47.63;;;35.38;;
32236;SDS011;18726;44.732;10.550;2023-12-20T16:30:59;47.60;;;36.35;;
32236;SDS011;18726;44.732;10.550;2023-12-20T16:34:03;39.35;;;32.40;;
32236;SDS011;18726;44.732;10.550;2023-12-20T16:37:07;41.83;;;33.95;;
32236;SDS011;18726;44.732;10.550;2023-12-20T16:40:11;42.97;;;33.25;;
32236;SDS011;18726;44.732;10.550;2023-12-20T16:43:15;60.13;;;37.22;;
32236;SDS011;18726;44.732;10.550;2023-12-20T16:46:18;46.92;;;35.05;;
32236;SDS011;18726;44.732;10.550;2023-12-20T16:49:22;44.30;;;31.77;;
32236;SDS011;18726;44.732;10.550;2023-12-20T16:52:27;48.45;;;35.60;;
32236;SDS011;18726;44.732;10.550;2023-12-20T16:55:30;43.17;;;34.25;;
32236;SDS011;18726;44.732;10.550;2023-12-20T16:58:34;41.63;;;33.88;;
32236;SDS011;18726;44.732;10.550;2023-12-20T17:01:38;62.83;;;39.40;;
32236;SDS011;18726;44.732;10.550;2023-12-20T17:04:43;56.38;;;36.63;;
32236;SDS011;18726;44.732;10.550;2023-12-20T17:07:46;63.58;;;43.00;;
32236;SDS011;18726;44.732;10.550;2023-12-20T17:10:49;52.85;;;41.22;;
32236;SDS011;18726;44.732;10.550;2023-12-20T17:13:53;53.08;;;41.92;;
32236;SDS011;18726;44.732;10.550;2023-12-20T17:16:57;54.78;;;42.35;;
32236;SDS011;18726;44.732;10.550;2023-12-20T17:20:01;54.65;;;40.10;;
32236;SDS011;18726;44.732;10.550;2023-12-20T17:23:06;55.45;;;39.78;;
32236;SDS011;18726;44.732;10.550;2023-12-20T17:26:11;52.83;;;38.70;;
32236;SDS011;18726;44.732;10.550;2023-12-20T17:29:15;42.15;;;34.30;;
32236;SDS011;18726;44.732;10.550;2023-12-20T17:32:19;48.05;;;35.35;;
32236;SDS011;18726;44.732;10.550;2023-12-20T17:35:23;50.72;;;38.25;;
32236;SDS011;18726;44.732;10.550;2023-12-20T17:38:27;46.47;;;36.05;;
32236;SDS011;18726;44.732;10.550;2023-12-20T17:41:32;58.80;;;37.80;;
32236;SDS011;18726;44.732;10.550;2023-12-20T17:44:37;56.35;;;39.75;;
32236;SDS011;18726;44.732;10.550;2023-12-20T17:47:40;43.83;;;33.63;;
32236;SDS011;18726;44.732;10.550;2023-12-20T17:50:44;46.83;;;34.75;;
32236;SDS011;18726;44.732;10.550;2023-12-20T17:53:48;55.90;;;38.33;;
32236;SDS011;18726;44.732;10.550;2023-12-20T17:56:53;52.85;;;40.03;;
32236;SDS011;18726;44.732;10.550;2023-12-20T18:00:09;54.50;;;39.03;;
32236;SDS011;18726;44.732;10.550;2023-12-20T18:03:22;53.95;;;41.22;;
32236;SDS011;18726;44.732;10.550;2023-12-20T18:06:25;54.95;;;34.92;;
32236;SDS011;18726;44.732;10.550;2023-12-20T18:09:29;55.20;;;41.08;;
32236;SDS011;18726;44.732;10.550;2023-12-20T18:12:34;81.20;;;58.97;;
32236;SDS011;18726;44.732;10.550;2023-12-20T18:15:37;55.47;;;45.42;;
32236;SDS011;18726;44.732;10.550;2023-12-20T18:18:41;68.03;;;46.92;;
32236;SDS011;18726;44.732;10.550;2023-12-20T18:21:45;56.70;;;43.88;;
32236;SDS011;18726;44.732;10.550;2023-12-20T18:24:49;71.63;;;56.53;;
32236;SDS011;18726;44.732;10.550;2023-12-20T18:27:53;61.05;;;46.90;;